Time;durP1;ratioP1;P1;durP2;ratioP2;P2;SDS_P1;SDS_P2;PMS_P1;PMS_P2;Temp;Humidity;BMP_temperature;BMP_pressure;BME280_temperature;BME280_humidity;BME280_pressure;Samples;Min_cycle;Max_cycle;Signal;HPM_P1;HPM_P2
2022/06/02 00:01:37;;;;;;;10.73;4.25;;;19.70;84.20;;;;;;5025539;28;20480;-62
2022/06/02 00:04:31;;;;;;;12.70;4.07;;;19.70;84.00;;;;;;5037781;28;20102;-62
2022/06/02 00:07:20;;;;;;;13.63;4.45;;;19.70;84.00;;;;;;5027069;28;20142;-62
2022/06/02 00:09:51;;;;;;;11.15;4.57;;;19.70;84.00;;;;;;5006254;28;20109;-62
2022/06/02 00:12:27;;;;;;;15.55;4.80;;;19.70;84.10;;;;;;5030247;28;20083;-61
2022/06/02 00:15:11;;;;;;;;;;;19.70;84.10;;;;;;5024562;28;20440;-61
2022/06/02 00:17:55;;;;;;;12.15;3.70;;;19.60;84.00;;;;;;5039970;28;20384;-61
2022/06/02 00:20:24;;;;;;;14.52;4.25;;;19.60;84.00;;;;;;5042480;28;20432;-61
2022/06/02 00:22:59;;;;;;;9.52;4.20;;;19.60;83.90;;;;;;5040493;28;20041;-61
2022/06/02 00:25:32;;;;;;;12.85;4.25;;;19.60;83.80;;;;;;5039110;28;20033;-61
2022/06/02 00:28:19;;;;;;;10.73;4.05;;;19.60;83.90;;;;;;5042795;28;20123;-61
2022/06/02 00:31:06;;;;;;;7.45;3.45;;;19.60;83.90;;;;;;5030800;28;20029;-61
2022/06/02 00:33:58;;;;;;;12.40;4.63;;;19.60;83.90;;;;;;5043004;28;20138;-61
2022/06/02 00:36:56;;;;;;;9.20;3.88;;;19.60;84.00;;;;;;5040131;28;20076;-61
2022/06/02 00:39:22;;;;;;;8.40;3.63;;;19.60;84.00;;;;;;5039053;28;20036;-61
2022/06/02 00:41:54;;;;;;;16.80;4.30;;;19.50;84.10;;;;;;5024889;28;20041;-61
2022/06/02 00:44:31;;;;;;;8.52;4.05;;;19.60;84.40;;;;;;5042472;28;20025;-61
2022/06/02 00:47:04;;;;;;;9.18;4.07;;;19.50;84.40;;;;;;5041874;28;20017;-61
2022/06/02 00:49:35;;;;;;;9.73;3.95;;;19.50;84.40;;;;;;5039676;28;20041;-61
2022/06/02 00:52:12;;;;;;;8.48;4.18;;;19.50;84.40;;;;;;5025563;28;20112;-61
2022/06/02 00:58:11;;;;;;;9.07;3.40;;;19.50;84.10;;;;;;5042049;28;20045;-61
2022/06/02 01:00:39;;;;;;;8.43;3.83;;;19.50;84.20;;;;;;5040009;28;20136;-61
2022/06/02 01:03:13;;;;;;;6.93;3.17;;;19.50;84.40;;;;;;5036398;28;20113;-61
2022/06/02 01:05:56;;;;;;;6.38;3.50;;;19.50;84.40;;;;;;5038738;28;20037;-61
2022/06/02 01:09:02;;;;;;;8.23;3.53;;;19.50;84.50;;;;;;5025824;28;20102;-61
2022/06/02 01:11:38;;;;;;;11.02;3.45;;;19.50;84.60;;;;;;5040412;28;20040;-61
2022/06/02 01:14:12;;;;;;;10.07;3.58;;;19.40;84.50;;;;;;5037976;28;20606;-61
2022/06/02 01:16:44;;;;;;;9.50;3.33;;;19.40;84.60;;;;;;5040567;28;20049;-61
2022/06/02 01:19:44;;;;;;;10.85;3.60;;;19.40;84.60;;;;;;5039883;28;20322;-61
2022/06/02 01:22:48;;;;;;;9.02;3.88;;;19.40;84.60;;;;;;5040221;28;20385;-61
2022/06/02 01:25:36;;;;;;;6.57;3.28;;;19.40;84.60;;;;;;5039252;28;20068;-61
2022/06/02 01:28:11;;;;;;;6.47;3.13;;;19.40;84.70;;;;;;5037270;28;20038;-61
2022/06/02 01:31:07;;;;;;;7.80;2.97;;;19.40;84.70;;;;;;5040346;28;20382;-62
2022/06/02 01:33:36;;;;;;;8.80;2.92;;;19.40;84.50;;;;;;5040788;28;20045;-61
2022/06/02 01:36:06;;;;;;;5.40;3.20;;;19.40;84.30;;;;;;5042204;28;20160;-61
2022/06/02 01:38:47;;;;;;;9.50;3.17;;;19.30;84.20;;;;;;5040238;28;20029;-61
2022/06/02 01:41:32;;;;;;;6.40;3.42;;;19.30;84.30;;;;;;5036061;28;20052;-61
2022/06/02 01:44:12;;;;;;;3.97;3.10;;;19.30;84.30;;;;;;5041022;28;20031;-61
2022/06/02 01:46:44;;;;;;;6.68;4.00;;;19.30;84.60;;;;;;5040423;28;20032;-61
2022/06/02 01:49:28;;;;;;;7.80;3.40;;;19.30;84.80;;;;;;5023206;28;20155;-61
2022/06/02 01:52:29;;;;;;;10.40;3.60;;;19.30;84.80;;;;;;5037963;28;20063;-62
2022/06/02 01:55:19;;;;;;;6.32;3.72;;;19.30;84.80;;;;;;5027370;28;20132;-61
2022/06/02 01:58:09;;;;;;;6.63;3.38;;;19.30;84.90;;;;;;5040203;28;20344;-61
2022/06/02 02:00:35;;;;;;;6.78;3.20;;;19.30;85.30;;;;;;5038566;28;20068;-61
2022/06/02 02:03:22;;;;;;;3.28;2.97;;;19.30;85.00;;;;;;5023931;28;20417;-61
2022/06/02 02:05:56;;;;;;;6.20;3.75;;;19.30;85.00;;;;;;5035594;28;20124;-61
2022/06/02 02:08:44;;;;;;;7.03;3.73;;;19.20;85.00;;;;;;5037714;28;20033;-61
2022/06/02 02:11:40;;;;;;;8.85;3.55;;;19.20;85.00;;;;;;5019947;28;20033;-61
2022/06/02 02:14:30;;;;;;;7.28;3.85;;;19.20;84.90;;;;;;5022601;28;20082;-62
2022/06/02 02:17:40;;;;;;;7.53;4.00;;;19.20;84.90;;;;;;5039031;28;20465;-61
2022/06/02 02:20:05;;;;;;;4.65;3.78;;;19.20;84.80;;;;;;5037935;28;20041;-61
2022/06/02 02:22:39;;;;;;;7.88;4.65;;;19.20;84.80;;;;;;5040932;28;20046;-61
2022/06/02 02:25:17;;;;;;;11.00;3.80;;;19.20;84.90;;;;;;5037809;28;20116;-62
2022/06/02 02:28:03;;;;;;;10.30;3.75;;;19.20;84.80;;;;;;5023495;28;20116;-62
2022/06/02 02:31:07;;;;;;;5.97;3.45;;;19.20;84.60;;;;;;5025677;28;20029;-61
2022/06/02 02:33:52;;;;;;;5.07;3.90;;;19.20;84.70;;;;;;5037652;28;20132;-61
2022/06/02 02:36:39;;;;;;;5.63;3.90;;;19.20;84.80;;;;;;5038032;28;20028;-61
2022/06/02 02:39:26;;;;;;;6.15;3.85;;;19.10;85.00;;;;;;5024251;28;20517;-61
2022/06/02 02:42:05;;;;;;;5.15;3.50;;;19.10;85.00;;;;;;5039083;28;20413;-61
2022/06/02 02:44:39;;;;;;;7.07;3.95;;;19.20;85.10;;;;;;5007355;28;20473;-63
2022/06/02 02:47:20;;;;;;;5.43;3.55;;;19.10;85.10;;;;;;5021726;28;20075;-62
2022/06/02 02:49:59;;;;;;;9.50;5.40;;;19.10;85.10;;;;;;5038318;28;20356;-61
2022/06/02 02:52:46;;;;;;;7.10;6.40;;;19.10;85.20;;;;;;5019829;28;20117;-62
2022/06/02 02:55:34;;;;;;;6.95;5.47;;;19.10;85.10;;;;;;5040096;28;20092;-62
2022/06/02 02:58:16;;;;;;;7.82;5.07;;;19.10;85.30;;;;;;5037420;28;20025;-62
2022/06/02 03:01:03;;;;;;;6.35;4.20;;;19.10;85.30;;;;;;5036203;28;20481;-61
2022/06/02 03:03:31;;;;;;;;;;;19.10;85.30;;;;;;5037967;28;20025;-62
2022/06/02 03:06:15;;;;;;;5.65;4.30;;;19.10;85.30;;;;;;5038468;28;19991;-61
2022/06/02 03:08:52;;;;;;;9.18;4.47;;;19.10;85.30;;;;;;5040786;28;20033;-62
2022/06/02 03:11:35;;;;;;;6.80;4.50;;;19.10;85.30;;;;;;5035534;28;20032;-61
2022/06/02 03:14:30;;;;;;;5.47;4.47;;;19.20;85.40;;;;;;5038421;28;20036;-63
2022/06/02 03:17:25;;;;;;;5.55;3.85;;;19.10;85.40;;;;;;5019056;28;20029;-61
2022/06/02 03:20:05;;;;;;;5.75;4.13;;;19.10;85.20;;;;;;5028907;28;20049;-61
2022/06/02 03:22:40;;;;;;;7.65;4.40;;;19.10;85.10;;;;;;5038508;28;20029;-62
2022/06/02 03:25:23;;;;;;;4.73;4.20;;;19.10;85.10;;;;;;5038905;28;20124;-61
2022/06/02 03:28:17;;;;;;;6.45;4.20;;;19.10;85.20;;;;;;5033529;28;20083;-62
2022/06/02 03:30:52;;;;;;;4.90;3.95;;;19.10;85.60;;;;;;5034328;28;20045;-62
2022/06/02 03:33:35;;;;;;;7.38;4.22;;;19.00;85.70;;;;;;5038235;28;20037;-62
2022/06/02 03:36:07;;;;;;;6.68;4.32;;;19.00;85.70;;;;;;5036500;28;20068;-61
2022/06/02 03:38:53;;;;;;;7.70;5.55;;;19.10;85.70;;;;;;5039629;28;20053;-62
2022/06/02 03:41:52;;;;;;;7.72;4.88;;;19.10;85.80;;;;;;5019230;28;20032;-61
2022/06/02 03:44:41;;;;;;;10.95;5.10;;;19.10;85.90;;;;;;5035251;28;20373;-61
2022/06/02 03:47:19;;;;;;;7.70;4.97;;;19.00;85.90;;;;;;5038113;28;20329;-62
2022/06/02 03:50:11;;;;;;;7.18;4.90;;;19.10;86.10;;;;;;5036827;28;20021;-61
2022/06/02 03:53:11;;;;;;;6.25;4.72;;;19.00;86.10;;;;;;5039232;28;20140;-62
2022/06/02 03:55:56;;;;;;;6.03;5.20;;;19.00;86.20;;;;;;5038025;28;20037;-61
2022/06/02 03:58:29;;;;;;;7.32;4.68;;;19.00;86.30;;;;;;5024279;28;20033;-62
2022/06/02 04:00:58;;;;;;;9.68;4.75;;;19.00;86.40;;;;;;5039357;28;20032;-61
2022/06/02 04:03:39;;;;;;;7.45;4.68;;;19.00;86.40;;;;;;5036131;28;20032;-61
2022/06/02 04:06:06;;;;;;;8.13;4.55;;;19.00;86.40;;;;;;5036476;28;20629;-61
2022/06/02 04:08:47;;;;;;;5.47;4.30;;;19.00;86.40;;;;;;5033329;28;20139;-62
2022/06/02 04:13:37;;;;;;;8.73;4.97;;;19.00;86.40;;;;;;5038537;28;20037;-61
2022/06/02 04:14:50;;;;;;;7.43;4.43;;;19.00;86.30;;;;;;5037449;28;20489;-61
2022/06/02 04:17:32;;;;;;;7.07;4.70;;;19.00;86.30;;;;;;5034465;28;20106;-61
2022/06/02 04:20:42;;;;;;;10.68;5.03;;;19.00;86.30;;;;;;5019552;28;20108;-61
2022/06/02 04:23:23;;;;;;;9.38;4.93;;;19.00;86.40;;;;;;5016142;28;20391;-61
2022/06/02 04:26:13;;;;;;;5.97;4.60;;;19.00;86.60;;;;;;5000915;28;20033;-61
2022/06/02 04:29:03;;;;;;;13.05;4.60;;;19.00;86.60;;;;;;5027222;28;20049;-61
2022/06/02 04:31:52;;;;;;;16.27;4.90;;;19.00;86.60;;;;;;5040985;28;20159;-62
2022/06/02 04:34:39;;;;;;;45.67;8.10;;;18.90;86.40;;;;;;5019801;28;20118;-62
2022/06/02 04:37:31;;;;;;;35.25;7.43;;;19.00;86.50;;;;;;5027297;28;20025;-61
2022/06/02 04:40:26;;;;;;;20.38;5.35;;;19.00;86.50;;;;;;5036161;28;20025;-61
2022/06/02 04:43:15;;;;;;;18.05;5.18;;;18.90;86.50;;;;;;5033207;28;21397;-62
2022/06/02 04:45:49;;;;;;;21.48;6.07;;;18.90;86.40;;;;;;5038790;28;20055;-61
2022/06/02 04:48:53;;;;;;;35.30;6.13;;;18.90;86.40;;;;;;5040398;28;20468;-61
2022/06/02 04:51:36;;;;;;;26.95;6.25;;;19.00;86.40;;;;;;5020869;28;20128;-61
2022/06/02 04:54:42;;;;;;;26.38;6.97;;;19.00;86.30;;;;;;4987283;28;20120;-61
2022/06/02 04:57:22;;;;;;;23.73;6.43;;;19.00;86.40;;;;;;5018417;28;20037;-61
2022/06/02 05:00:18;;;;;;;17.88;5.57;;;19.00;86.50;;;;;;5025533;28;20040;-61
2022/06/02 05:03:01;;;;;;;18.58;5.78;;;19.00;86.30;;;;;;5041297;28;20025;-62
2022/06/02 05:05:29;;;;;;;16.30;5.53;;;19.00;86.30;;;;;;5040868;28;20484;-61
2022/06/02 05:08:35;;;;;;;30.42;6.28;;;19.00;86.30;;;;;;5040120;28;20070;-61
2022/06/02 05:11:13;;;;;;;18.23;5.97;;;19.00;86.20;;;;;;5037749;28;20033;-61
2022/06/02 05:14:09;;;;;;;23.75;5.97;;;19.00;86.20;;;;;;5037241;28;20373;-61
2022/06/02 05:17:01;;;;;;;19.73;5.97;;;19.00;86.30;;;;;;5038077;28;20100;-62
2022/06/02 05:19:45;;;;;;;20.65;5.72;;;19.00;86.30;;;;;;5038431;28;20272;-62
2022/06/02 05:22:38;;;;;;;22.40;5.88;;;18.90;86.20;;;;;;5041881;28;20036;-62
2022/06/02 05:25:25;;;;;;;25.27;6.45;;;19.00;86.10;;;;;;5019984;28;20116;-61
2022/06/02 05:28:13;;;;;;;13.05;5.65;;;19.00;86.10;;;;;;5041134;28;20124;-61
2022/06/02 05:30:45;;;;;;;20.65;5.53;;;19.00;86.00;;;;;;5034480;28;20044;-61
2022/06/02 05:33:34;;;;;;;18.58;5.82;;;19.00;85.90;;;;;;5038749;28;20029;-61
2022/06/02 05:36:09;;;;;;;19.30;5.55;;;19.10;86.10;;;;;;5030592;28;20037;-61
2022/06/02 05:38:37;;;;;;;16.45;5.15;;;19.10;86.10;;;;;;5037980;28;20037;-62
2022/06/02 05:41:13;;;;;;;16.65;5.82;;;19.10;86.20;;;;;;5034479;28;20063;-62
2022/06/02 05:44:14;;;;;;;13.32;5.53;;;19.10;86.30;;;;;;5040783;28;20032;-62
2022/06/02 05:46:58;;;;;;;21.38;5.93;;;19.10;86.40;;;;;;5003729;28;20048;-62
2022/06/02 05:49:42;;;;;;;11.80;5.75;;;19.10;86.40;;;;;;5037138;28;20124;-61
2022/06/02 05:52:30;;;;;;;16.77;6.20;;;19.10;86.60;;;;;;5038520;28;20089;-61
2022/06/02 05:55:29;;;;;;;13.40;5.93;;;19.10;86.90;;;;;;5036826;28;20032;-61
2022/06/02 05:58:03;;;;;;;13.40;5.18;;;19.20;86.90;;;;;;5029996;28;20031;-63
2022/06/02 06:00:37;;;;;;;17.05;5.53;;;19.10;87.00;;;;;;5030788;28;22294;-61
2022/06/02 06:03:08;;;;;;;15.07;5.68;;;19.10;86.90;;;;;;5030217;28;20493;-62
2022/06/02 06:05:54;;;;;;;14.75;6.47;;;19.20;87.20;;;;;;5027313;28;20060;-61
2022/06/02 06:08:45;;;;;;;29.25;8.18;;;19.20;87.70;;;;;;5029443;28;20082;-62
2022/06/02 06:11:21;;;;;;;21.63;6.78;;;19.10;87.80;;;;;;5027594;28;20766;-61
2022/06/02 06:14:20;;;;;;;22.17;6.60;;;19.10;88.10;;;;;;5025653;28;20837;-61
2022/06/02 06:16:55;;;;;;;21.65;6.93;;;19.10;88.30;;;;;;5013399;28;20037;-61
2022/06/02 06:19:25;;;;;;;19.23;7.97;;;19.10;88.90;;;;;;5021127;28;20036;-61
2022/06/02 06:22:03;;;;;;;26.48;8.23;;;19.00;88.40;;;;;;5027632;28;20104;-61
2022/06/02 06:24:55;;;;;;;32.30;8.32;;;19.10;88.60;;;;;;5027714;28;20045;-62
2022/06/02 06:27:25;;;;;;;26.40;8.18;;;19.00;88.90;;;;;;5033828;28;20024;-61
2022/06/02 06:30:03;;;;;;;35.42;9.73;;;19.10;89.00;;;;;;5027137;28;20415;-63
2022/06/02 06:32:48;;;;;;;49.03;9.75;;;19.10;89.20;;;;;;5033986;28;20482;-61
2022/06/02 06:35:19;;;;;;;25.50;9.35;;;19.00;89.60;;;;;;5031832;28;20113;-61
2022/06/02 06:38:19;;;;;;;23.67;9.02;;;19.00;90.00;;;;;;5033840;28;20037;-61
2022/06/02 06:41:11;;;;;;;41.65;10.48;;;19.00;90.00;;;;;;5014800;28;20570;-61
2022/06/02 06:43:47;;;;;;;36.20;9.55;;;19.10;90.00;;;;;;5030577;28;20064;-61
2022/06/02 06:46:29;;;;;;;44.97;9.27;;;19.10;90.00;;;;;;5010187;28;20033;-63
2022/06/02 06:48:59;;;;;;;29.38;9.60;;;19.10;89.40;;;;;;5017760;28;20408;-60
2022/06/02 06:52:03;;;;;;;28.05;8.02;;;19.20;89.40;;;;;;5036770;28;20044;-61
2022/06/02 06:54:47;;;;;;;50.92;10.30;;;19.20;88.80;;;;;;5026471;28;20047;-62
2022/06/02 06:57:27;;;;;;;28.83;8.82;;;19.20;90.00;;;;;;5029284;28;20025;-61
2022/06/02 07:00:03;;;;;;;23.75;10.15;;;19.20;90.20;;;;;;5027800;28;20083;-61
2022/06/02 07:02:54;;;;;;;22.25;10.07;;;19.20;90.50;;;;;;5030049;28;20052;-61
2022/06/02 07:05:42;;;;;;;28.23;10.05;;;19.20;90.60;;;;;;5034703;28;20029;-61
2022/06/02 07:08:30;;;;;;;26.88;9.82;;;19.20;90.60;;;;;;5018843;28;20115;-61
2022/06/02 07:14:39;;;;;;;18.25;9.63;;;19.10;90.80;;;;;;5035629;28;20052;-61
2022/06/02 07:17:10;;;;;;;30.70;9.68;;;19.10;91.00;;;;;;5030192;28;20025;-61
2022/06/02 07:19:56;;;;;;;42.30;10.98;;;19.20;91.10;;;;;;5030618;28;20033;-61
2022/06/02 07:22:35;;;;;;;31.85;9.93;;;19.20;91.20;;;;;;4999266;28;20144;-61
2022/06/02 07:25:27;;;;;;;32.95;10.43;;;19.20;91.30;;;;;;5011390;28;20079;-61
2022/06/02 07:28:34;;;;;;;67.68;13.07;;;19.20;91.40;;;;;;5011042;28;20041;-61
2022/06/02 07:31:14;;;;;;;32.58;10.88;;;19.20;91.30;;;;;;5040723;28;20461;-61
2022/06/02 07:33:58;;;;;;;67.13;14.60;;;19.20;91.30;;;;;;5010430;28;20064;-62
2022/06/02 07:36:30;;;;;;;47.38;10.27;;;19.30;91.30;;;;;;4999122;28;20049;-62
2022/06/02 07:39:08;;;;;;;41.60;9.20;;;19.30;91.20;;;;;;5027415;28;20037;-61
2022/06/02 07:41:56;;;;;;;40.17;9.25;;;19.30;91.40;;;;;;5024001;28;20036;-61
2022/06/02 07:44:37;;;;;;;29.00;9.05;;;19.40;91.50;;;;;;5025633;28;20041;-61
2022/06/02 07:47:29;;;;;;;55.25;10.55;;;19.40;91.40;;;;;;5028561;28;20025;-61
2022/06/02 07:50:09;;;;;;;41.17;10.23;;;19.40;91.30;;;;;;5021297;28;20106;-61
2022/06/02 07:52:57;;;;;;;47.92;10.95;;;19.30;91.20;;;;;;5011976;28;20029;-61
2022/06/02 07:55:37;;;;;;;94.65;13.50;;;19.50;91.10;;;;;;5018182;28;20362;-61
2022/06/02 07:58:21;;;;;;;56.47;10.70;;;19.60;91.10;;;;;;5028120;28;20125;-61
2022/06/02 08:00:53;;;;;;;50.40;10.88;;;19.60;91.10;;;;;;5032441;28;20102;-61
2022/06/02 08:03:37;;;;;;;48.40;10.50;;;19.60;91.10;;;;;;5020425;28;20123;-61
2022/06/02 08:06:18;;;;;;;41.45;10.48;;;19.60;91.00;;;;;;5028441;28;20124;-61
2022/06/02 08:08:52;;;;;;;43.25;9.13;;;19.60;91.00;;;;;;5018289;28;20571;-61
2022/06/02 08:11:41;;;;;;;30.73;9.18;;;19.60;90.90;;;;;;5009029;28;20443;-61
2022/06/02 08:14:12;;;;;;;45.33;9.85;;;19.70;90.80;;;;;;5033276;28;20117;-61
2022/06/02 08:17:07;;;;;;;33.90;9.18;;;19.60;90.90;;;;;;5026359;28;20024;-62
2022/06/02 08:19:40;;;;;;;23.43;9.37;;;19.70;90.90;;;;;;5017570;28;20068;-61
2022/06/02 08:22:08;;;;;;;28.20;8.57;;;19.70;90.80;;;;;;5028327;28;20296;-61
2022/06/02 08:24:42;;;;;;;32.75;10.43;;;19.70;90.80;;;;;;5032633;28;20052;-61
2022/06/02 08:27:31;;;;;;;51.15;11.38;;;19.70;90.90;;;;;;5036267;28;20442;-61
2022/06/02 08:30:24;;;;;;;53.50;11.13;;;19.70;91.00;;;;;;5034556;28;20032;-61
2022/06/02 08:33:08;;;;;;;39.13;10.65;;;19.70;91.00;;;;;;5030409;28;20570;-61
2022/06/02 08:35:42;;;;;;;49.10;10.90;;;19.80;91.00;;;;;;5026111;28;20040;-61
2022/06/02 08:38:46;;;;;;;41.72;9.20;;;19.80;90.80;;;;;;5026394;28;20241;-61
2022/06/02 08:41:34;;;;;;;37.15;10.10;;;19.90;90.60;;;;;;5007172;28;20179;-62
2022/06/02 08:44:23;;;;;;;32.63;9.75;;;19.90;90.50;;;;;;5025817;28;20045;-61
2022/06/02 08:47:13;;;;;;;30.17;9.13;;;19.90;90.30;;;;;;5030993;28;20029;-61
2022/06/02 08:50:16;;;;;;;42.42;9.90;;;19.90;90.20;;;;;;5022921;28;20563;-62
2022/06/02 08:52:42;;;;;;;38.38;9.55;;;20.00;90.30;;;;;;5017520;28;20039;-62
2022/06/02 08:55:16;;;;;;;42.33;11.30;;;20.00;90.40;;;;;;5034684;28;21342;-61
2022/06/02 08:57:47;;;;;;;37.58;10.38;;;20.00;90.60;;;;;;5034308;28;20036;-61
2022/06/02 09:00:37;;;;;;;38.60;9.07;;;20.10;90.60;;;;;;5032140;28;20033;-61
2022/06/02 09:03:22;;;;;;;29.65;9.02;;;20.10;90.50;;;;;;5026928;28;20041;-61
2022/06/02 09:06:15;;;;;;;25.65;8.90;;;20.10;90.40;;;;;;5031283;28;20042;-61
2022/06/02 09:09:15;;;;;;;30.02;9.02;;;20.20;90.20;;;;;;5030002;28;20175;-61
2022/06/02 09:11:47;;;;;;;47.15;10.15;;;20.30;90.30;;;;;;5011166;28;20045;-61
2022/06/02 09:14:35;;;;;;;31.40;8.40;;;20.30;90.20;;;;;;5029122;28;20064;-61
2022/06/02 09:17:10;;;;;;;43.25;8.48;;;20.40;90.00;;;;;;5024796;28;20032;-61
2022/06/02 09:19:38;;;;;;;36.05;9.50;;;20.40;90.00;;;;;;5014108;28;20052;-61
2022/06/02 09:22:10;;;;;;;37.33;8.98;;;20.40;89.80;;;;;;5030376;28;21260;-62
2022/06/02 09:24:45;;;;;;;42.67;9.32;;;20.50;89.90;;;;;;5031105;28;20033;-62
2022/06/02 09:27:35;;;;;;;33.00;9.07;;;20.50;89.80;;;;;;5030301;28;20115;-62
2022/06/02 09:30:12;;;;;;;31.27;8.70;;;20.60;89.50;;;;;;5033765;28;20025;-62
2022/06/02 09:33:33;;;;;;;35.17;8.65;;;20.60;89.40;;;;;;5028434;28;20044;-62
2022/06/02 09:36:12;;;;;;;35.90;8.20;;;20.60;89.10;;;;;;5025855;28;20042;-62
2022/06/02 09:39:11;;;;;;;62.78;10.90;;;20.60;89.00;;;;;;5021648;28;20057;-61
2022/06/02 09:42:04;;;;;;;52.28;10.02;;;20.60;89.00;;;;;;5028350;28;20049;-67
2022/06/02 09:44:50;;;;;;;37.20;8.63;;;20.70;89.20;;;;;;5018683;28;21167;-62
2022/06/02 09:47:19;;;;;;;34.10;8.85;;;20.70;89.40;;;;;;5026272;28;20075;-61
2022/06/02 09:50:03;;;;;;;32.10;8.35;;;20.70;89.10;;;;;;5022710;28;20041;-62
2022/06/02 09:52:57;;;;;;;29.30;7.90;;;20.80;89.00;;;;;;5029900;28;20620;-66
2022/06/02 09:55:44;;;;;;;19.30;7.13;;;20.80;88.50;;;;;;5006690;28;20033;-62
2022/06/02 09:58:41;;;;;;;15.65;7.38;;;20.90;88.40;;;;;;5013914;28;20040;-62
2022/06/02 10:01:12;;;;;;;24.30;7.30;;;21.00;88.20;;;;;;4999121;28;20585;-61
2022/06/02 10:03:45;;;;;;;21.38;6.45;;;21.00;88.10;;;;;;5027710;28;20184;-61
2022/06/02 10:06:52;;;;;;;25.27;7.60;;;21.00;87.90;;;;;;5024283;28;20037;-61
2022/06/02 10:09:36;;;;;;;33.75;8.52;;;20.90;87.60;;;;;;4986754;28;20029;-61
2022/06/02 10:15:39;;;;;;;16.35;7.22;;;21.10;87.30;;;;;;5026534;28;20144;-62
2022/06/02 10:18:17;;;;;;;26.52;7.55;;;21.10;87.20;;;;;;5024950;28;20032;-62
2022/06/02 10:21:06;;;;;;;32.00;8.23;;;21.20;87.20;;;;;;5026680;28;20033;-62
2022/06/02 10:24:00;;;;;;;30.02;8.15;;;21.20;87.10;;;;;;5019471;28;20017;-62
2022/06/02 10:27:01;;;;;;;34.90;8.45;;;21.30;87.00;;;;;;5020231;28;20098;-61
2022/06/02 10:29:55;;;;;;;34.78;8.75;;;21.30;87.00;;;;;;5009934;28;20691;-62
2022/06/02 10:32:52;;;;;;;52.67;9.38;;;21.40;86.70;;;;;;5021764;28;20021;-62
2022/06/02 10:35:48;;;;;;;52.40;9.57;;;21.50;87.10;;;;;;5025490;28;20114;-62
2022/06/02 10:38:18;;;;;;;38.60;8.80;;;21.50;86.60;;;;;;5012496;28;20033;-62
2022/06/02 10:40:55;;;;;;;46.85;9.23;;;21.60;86.00;;;;;;5029654;28;20033;-62
2022/06/02 10:43:45;;;;;;;41.60;8.88;;;21.70;86.30;;;;;;5025730;28;20141;-61
2022/06/02 10:46:11;;;;;;;58.03;9.98;;;21.70;86.00;;;;;;5031803;28;20124;-62
2022/06/02 10:49:00;;;;;;;32.70;8.88;;;21.80;85.80;;;;;;5030831;28;20520;-62
2022/06/02 10:51:52;;;;;;;81.60;12.60;;;21.90;85.20;;;;;;5016078;28;20598;-62
2022/06/02 10:54:20;;;;;;;42.55;8.27;;;22.00;85.10;;;;;;5028302;28;20508;-62
2022/06/02 10:57:11;;;;;;;46.88;8.18;;;22.00;84.60;;;;;;5027581;28;20136;-62
2022/06/02 10:59:59;;;;;;;53.42;9.35;;;22.10;84.40;;;;;;5024377;28;20570;-62
2022/06/02 11:02:36;;;;;;;53.55;9.10;;;22.10;84.20;;;;;;5022512;28;20028;-62
2022/06/02 11:05:39;;;;;;;51.53;9.73;;;22.20;83.70;;;;;;5029285;28;20033;-62
2022/06/02 11:08:12;;;;;;;63.10;9.88;;;22.40;83.50;;;;;;5027638;28;20045;-62
2022/06/02 11:11:02;;;;;;;57.55;9.60;;;22.50;83.30;;;;;;5009970;28;20040;-62
2022/06/02 11:13:58;;;;;;;26.63;6.85;;;22.60;82.60;;;;;;5020949;28;20056;-62
2022/06/02 11:17:14;;;;;;;48.38;8.40;;;22.70;81.50;;;;;;5032653;28;20037;-62
2022/06/02 11:19:58;;;;;;;52.25;8.40;;;22.80;81.00;;;;;;4989435;28;20083;-62
2022/06/02 11:23:05;;;;;;;38.10;7.30;;;23.00;80.20;;;;;;5023658;28;20040;-62
2022/06/02 11:25:43;;;;;;;43.95;7.32;;;23.10;79.50;;;;;;5022906;28;20087;-62
2022/06/02 11:28:20;;;;;;;52.33;8.48;;;23.30;79.00;;;;;;5024020;28;20151;-62
2022/06/02 11:30:54;;;;;;;44.83;8.25;;;23.40;78.70;;;;;;5022195;28;20025;-62
2022/06/02 11:33:32;;;;;;;41.78;7.70;;;23.50;78.50;;;;;;5007196;28;20029;-62
2022/06/02 11:36:00;;;;;;;30.80;6.82;;;23.50;78.10;;;;;;5017296;28;20108;-62
2022/06/02 11:38:43;;;;;;;35.45;6.55;;;23.50;77.70;;;;;;5012306;28;20095;-62
2022/06/02 11:41:29;;;;;;;24.67;5.88;;;23.50;77.60;;;;;;5022977;28;20017;-62
2022/06/02 11:44:02;;;;;;;;;;;23.50;77.50;;;;;;5020690;28;20171;-62
2022/06/02 11:46:27;;;;;;;27.42;6.65;;;23.60;77.40;;;;;;5025465;28;19942;-61
2022/06/02 11:49:31;;;;;;;34.60;6.07;;;23.60;77.00;;;;;;5031358;28;20064;-62
2022/06/02 11:52:20;;;;;;;30.25;6.15;;;23.70;76.90;;;;;;5026144;28;20025;-64
2022/06/02 11:55:11;;;;;;;36.42;6.13;;;23.70;76.60;;;;;;5026172;28;20063;-62
2022/06/02 11:58:25;;;;;;;24.52;6.38;;;23.70;76.60;;;;;;5016008;28;20033;-62
2022/06/02 12:01:13;;;;;;;28.50;6.13;;;23.70;76.20;;;;;;5020693;28;20109;-62
2022/06/02 12:03:46;;;;;;;34.60;5.93;;;23.70;75.70;;;;;;5012679;28;20037;-62
2022/06/02 12:06:57;;;;;;;24.13;5.05;;;23.70;75.80;;;;;;5035264;28;20153;-62
2022/06/02 12:09:41;;;;;;;17.95;4.72;;;23.70;75.90;;;;;;5017162;28;20468;-62
2022/06/02 12:12:32;;;;;;;31.73;5.97;;;23.80;75.20;;;;;;5011454;28;20046;-62
2022/06/02 12:15:27;;;;;;;17.52;5.07;;;23.80;75.20;;;;;;5038652;28;20041;-62
2022/06/02 12:18:28;;;;;;;25.45;4.38;;;23.80;74.80;;;;;;5033541;28;21722;-62
2022/06/02 12:21:08;;;;;;;17.15;5.03;;;23.80;74.80;;;;;;5024262;28;20487;-62
2022/06/02 12:24:04;;;;;;;21.80;4.88;;;23.90;74.60;;;;;;5033278;28;20107;-61
2022/06/02 12:26:41;;;;;;;18.27;4.50;;;23.90;75.00;;;;;;5033142;28;20056;-62
2022/06/02 12:29:14;;;;;;;29.65;5.60;;;23.90;74.20;;;;;;5030890;28;20072;-61
2022/06/02 12:31:41;;;;;;;37.72;7.97;;;24.00;73.90;;;;;;5030818;28;20037;-65
2022/06/02 12:34:29;;;;;;;42.13;6.35;;;24.00;73.60;;;;;;5028948;28;20060;-62
2022/06/02 12:37:21;;;;;;;37.20;6.82;;;24.00;73.70;;;;;;5010680;28;20440;-62
2022/06/02 12:39:57;;;;;;;30.13;6.57;;;24.00;73.60;;;;;;5017864;28;20041;-61
2022/06/02 12:42:41;;;;;;;28.05;5.85;;;24.00;73.50;;;;;;5035282;28;20035;-62
2022/06/02 12:45:31;;;;;;;47.78;7.20;;;24.10;73.70;;;;;;5040670;28;20028;-61
2022/06/02 12:48:25;;;;;;;41.80;6.15;;;24.10;73.80;;;;;;5035487;28;20103;-62
2022/06/02 12:51:15;;;;;;;32.25;6.35;;;24.10;73.80;;;;;;5033198;28;20119;-62
2022/06/02 12:54:04;;;;;;;33.47;6.20;;;24.10;73.90;;;;;;5036015;28;20049;-62
2022/06/02 12:56:56;;;;;;;29.05;5.30;;;24.10;74.00;;;;;;5036019;28;20048;-62
2022/06/02 12:59:55;;;;;;;39.67;6.18;;;24.20;73.70;;;;;;5037880;28;20063;-62
2022/06/02 13:03:00;;;;;;;22.23;4.72;;;24.30;73.60;;;;;;5018270;28;20503;-65
2022/06/02 13:05:46;;;;;;;40.38;6.70;;;24.30;73.50;;;;;;5030162;28;20037;-61
2022/06/02 13:08:39;;;;;;;39.97;5.63;;;24.40;73.30;;;;;;5036618;28;20102;-62
2022/06/02 13:11:32;;;;;;;48.65;7.53;;;24.50;73.10;;;;;;5040092;28;20088;-62
2022/06/02 13:14:07;;;;;;;43.58;7.03;;;24.50;73.20;;;;;;5037082;28;20078;-61
2022/06/02 13:16:51;;;;;;;;;;;24.50;73.40;;;;;;5036234;28;20033;-61
2022/06/02 13:19:35;;;;;;;43.60;6.75;;;24.50;73.30;;;;;;5029284;28;19917;-62
2022/06/02 13:22:23;;;;;;;30.77;6.18;;;24.60;73.40;;;;;;5031153;28;20033;-62
2022/06/02 13:25:07;;;;;;;60.92;7.85;;;24.70;73.40;;;;;;5032952;28;20041;-62
2022/06/02 13:28:01;;;;;;;54.63;9.05;;;24.90;73.20;;;;;;5034284;28;20040;-61
2022/06/02 13:30:50;;;;;;;67.95;9.90;;;24.90;72.90;;;;;;5017334;28;20637;-62
2022/06/02 13:33:36;;;;;;;55.28;9.35;;;25.00;72.90;;;;;;5023779;28;20049;-62
2022/06/02 13:36:16;;;;;;;96.40;11.15;;;25.10;73.10;;;;;;5032366;28;20041;-62
2022/06/02 13:39:01;;;;;;;123.97;12.98;;;25.10;72.90;;;;;;5017774;28;20026;-62
2022/06/02 13:41:59;;;;;;;75.07;10.52;;;25.20;72.80;;;;;;5027981;28;20049;-62
2022/06/02 13:44:37;;;;;;;103.60;12.52;;;25.30;72.50;;;;;;5034920;28;20060;-62
2022/06/02 13:47:24;;;;;;;83.93;11.82;;;25.30;72.60;;;;;;5039533;28;20159;-61
2022/06/02 13:50:35;;;;;;;78.32;11.80;;;25.30;72.50;;;;;;5035558;28;20098;-62
2022/06/02 13:53:18;;;;;;;83.10;11.38;;;25.40;72.40;;;;;;5030469;28;20056;-63
2022/06/02 13:58:58;;;;;;;80.88;8.88;;;25.30;72.40;;;;;;5036234;28;20114;-61
2022/06/02 14:01:35;;;;;;;70.40;10.02;;;25.30;72.70;;;;;;5036318;28;20052;-63
2022/06/02 14:04:25;;;;;;;83.72;10.85;;;25.30;72.50;;;;;;5019153;28;20025;-61
2022/06/02 14:06:53;;;;;;;73.57;8.70;;;25.30;72.60;;;;;;5036613;28;20094;-63
2022/06/02 14:09:42;;;;;;;73.53;9.93;;;25.30;72.60;;;;;;5013319;28;20033;-62
2022/06/02 14:12:33;;;;;;;80.50;10.15;;;25.20;72.80;;;;;;5027440;28;20401;-61
2022/06/02 14:15:25;;;;;;;85.57;10.05;;;25.20;72.80;;;;;;5031585;28;20024;-62
2022/06/02 14:18:34;;;;;;;71.43;8.75;;;25.10;73.70;;;;;;4991703;28;20061;-62
2022/06/02 14:21:10;;;;;;;91.63;10.07;;;25.10;73.40;;;;;;5025580;28;20488;-61